createdAt,value
2023-01-10T00:01:44.195Z,82.77
2023-01-10T00:04:12.234Z,58.73
2023-01-10T00:06:40.318Z,83.50
2023-01-10T00:09:08.959Z,77.07
2023-01-10T00:11:54.329Z,42.47
2023-01-10T00:14:22.417Z,19.80
2023-01-10T00:16:51.735Z,24.50
2023-01-10T00:19:19.771Z,32.97
2023-01-10T00:21:47.736Z,25.40
2023-01-10T00:24:19.976Z,63.73
2023-01-10T00:26:51.963Z,173.30
2023-01-10T00:29:20.504Z,70.47
2023-01-10T00:31:49.132Z,104.83
2023-01-10T00:34:18.602Z,103.60
2023-01-10T00:36:47.924Z,449.27
2023-01-10T00:39:18.139Z,93.97
2023-01-10T00:42:03.364Z,60.90
2023-01-10T00:44:31.505Z,59.40
2023-01-10T00:46:59.467Z,465.67
2023-01-10T00:49:28.837Z,210.00
2023-01-10T00:51:58.254Z,35.77
2023-01-10T00:54:26.620Z,91.83
2023-01-10T00:56:54.698Z,134.63
2023-01-10T00:59:22.882Z,26.47
2023-01-10T01:01:51.278Z,118.30
2023-01-10T01:04:19.432Z,45.03
2023-01-10T01:06:50.720Z,70.57
2023-01-10T01:09:18.821Z,94.77
2023-01-10T01:11:46.825Z,80.10
2023-01-10T01:14:14.792Z,159.37
2023-01-10T01:16:42.807Z,24.33
2023-01-10T01:19:11.216Z,29.10
2023-01-10T01:21:39.307Z,22.27
2023-01-10T01:24:09.833Z,68.80
2023-01-10T01:26:37.886Z,32.70
2023-01-10T01:29:05.879Z,19.83
2023-01-10T01:31:33.916Z,37.17
2023-01-10T01:34:02.112Z,38.97
2023-01-10T01:36:30.129Z,97.87
2023-01-10T01:38:58.116Z,53.47
2023-01-10T01:41:44.780Z,22.23
2023-01-10T01:44:17.850Z,20.87
2023-01-10T01:46:48.701Z,73.57
2023-01-10T01:49:20.279Z,26.07
2023-01-10T01:51:50.164Z,30.50
2023-01-10T01:54:19.570Z,23.93
2023-01-10T01:56:52.575Z,33.60
2023-01-10T01:59:24.254Z,16.93
2023-01-10T02:01:57.240Z,143.87
2023-01-10T02:04:30.017Z,16.67
2023-01-10T02:06:59.394Z,49.57
2023-01-10T02:09:33.581Z,34.07
2023-01-10T02:12:04.121Z,141.87
2023-01-10T02:14:33.229Z,312.10
2023-01-10T02:17:01.234Z,17.43
2023-01-10T02:19:38.577Z,23.20
2023-01-10T02:22:49.473Z,25.63
2023-01-10T02:25:47.231Z,21.07
2023-01-10T02:28:55.142Z,18.47
2023-01-10T02:31:42.478Z,39.60
2023-01-10T02:34:17.014Z,137.87
2023-01-10T02:36:52.022Z,71.90
2023-01-10T02:39:29.949Z,14.90
2023-01-10T02:42:03.962Z,39.30
2023-01-10T02:44:39.043Z,42.27
2023-01-10T02:47:09.510Z,15.27
2023-01-10T02:49:45.088Z,22.67
2023-01-10T02:52:17.079Z,17.70
2023-01-10T02:54:45.400Z,108.27
2023-01-10T02:57:34.564Z,32.07
2023-01-10T03:00:26.292Z,24.47
2023-01-10T03:03:09.973Z,28.10
2023-01-10T03:05:52.953Z,29.80
2023-01-10T03:08:29.020Z,41.80
2023-01-10T03:11:00.823Z,37.53
2023-01-10T03:13:35.854Z,42.43
2023-01-10T03:16:05.804Z,39.83
2023-01-10T03:18:38.305Z,51.67
2023-01-10T03:21:09.655Z,60.00
2023-01-10T03:23:38.184Z,28.63
2023-01-10T03:26:10.115Z,53.83
2023-01-10T03:28:45.812Z,55.73
2023-01-10T03:31:18.400Z,34.73
2023-01-10T03:33:46.721Z,79.00
2023-01-10T03:36:23.464Z,116.23
2023-01-10T03:38:54.982Z,20.87
2023-01-10T03:41:34.419Z,21.97
2023-01-10T03:44:29.943Z,33.73
2023-01-10T03:47:05.847Z,29.97
2023-01-10T03:49:36.096Z,28.13
2023-01-10T03:52:06.772Z,24.33
2023-01-10T03:54:34.796Z,23.50
2023-01-10T03:57:02.979Z,30.90
2023-01-10T03:59:31.644Z,66.30
2023-01-10T04:01:59.804Z,41.23
2023-01-10T04:04:28.009Z,70.97
2023-01-10T04:06:55.981Z,28.33
2023-01-10T04:09:25.495Z,32.03
2023-01-10T04:11:53.463Z,41.53
2023-01-10T04:14:21.473Z,77.40
2023-01-10T04:16:49.438Z,108.73
2023-01-10T04:19:17.447Z,39.33
2023-01-10T04:21:45.660Z,143.03
2023-01-10T04:24:13.885Z,39.93
2023-01-10T04:26:43.480Z,41.30
2023-01-10T04:29:11.784Z,64.77
2023-01-10T04:31:40.897Z,78.53
2023-01-10T04:34:09.234Z,20.20
2023-01-10T04:36:37.551Z,39.63
2023-01-10T04:39:06.008Z,31.20
2023-01-10T04:41:34.010Z,91.40
2023-01-10T04:44:03.370Z,33.83
2023-01-10T04:46:31.881Z,19.70
2023-01-10T04:49:00.313Z,41.17
2023-01-10T04:51:28.851Z,76.47
2023-01-10T04:53:57.344Z,39.03
2023-01-10T04:56:26.547Z,74.17
2023-01-10T04:58:54.991Z,38.43
2023-01-10T05:01:26.122Z,39.50
2023-01-10T05:03:56.047Z,39.47
2023-01-10T05:06:25.339Z,57.13
2023-01-10T05:08:53.491Z,36.07
2023-01-10T05:11:21.523Z,64.70
2023-01-10T05:13:49.617Z,34.67
2023-01-10T05:16:18.184Z,35.60
2023-01-10T05:18:47.570Z,48.23
2023-01-10T05:21:15.785Z,30.80
2023-01-10T05:23:44.190Z,22.73
2023-01-10T05:26:13.965Z,43.57
2023-01-10T05:28:42.797Z,46.60
2023-01-10T05:31:13.132Z,22.57
2023-01-10T05:33:44.526Z,46.47
2023-01-10T05:36:13.923Z,113.97
2023-01-10T05:38:41.992Z,41.70
2023-01-10T05:41:10.322Z,114.90
2023-01-10T05:43:38.354Z,23.80
2023-01-10T05:46:06.628Z,28.93
2023-01-10T05:48:34.718Z,46.90
2023-01-10T05:51:02.860Z,47.53
2023-01-10T05:53:32.233Z,153.07
2023-01-10T05:56:01.618Z,22.83
2023-01-10T05:58:30.692Z,87.23
2023-01-10T06:00:59.377Z,22.17
2023-01-10T06:03:27.422Z,31.50
2023-01-10T06:05:55.682Z,40.67
2023-01-10T06:08:24.211Z,36.37
2023-01-10T06:10:53.741Z,42.70
2023-01-10T06:13:22.026Z,68.83
2023-01-10T06:15:50.691Z,31.63
2023-01-10T06:18:18.687Z,30.57
2023-01-10T06:20:47.032Z,35.17
2023-01-10T06:23:15.009Z,51.53
2023-01-10T06:25:43.075Z,61.40
2023-01-10T06:28:14.253Z,42.23
2023-01-10T06:30:43.377Z,49.33
2023-01-10T06:33:12.472Z,28.40
2023-01-10T06:35:40.579Z,66.33
2023-01-10T06:38:09.703Z,340.10
2023-01-10T06:40:37.748Z,30.03
2023-01-10T06:43:05.719Z,95.23
2023-01-10T06:45:35.267Z,28.00
2023-01-10T06:48:03.226Z,44.07
2023-01-10T06:50:31.836Z,460.30
2023-01-10T06:53:01.428Z,66.93
2023-01-10T06:55:30.463Z,104.23
2023-01-10T06:57:59.131Z,44.80
2023-01-10T07:00:28.463Z,38.00
2023-01-10T07:02:59.796Z,97.07
2023-01-10T07:05:29.114Z,29.33
2023-01-10T07:07:58.327Z,96.57
2023-01-10T07:10:26.321Z,114.93
2023-01-10T07:12:56.291Z,42.90
2023-01-10T07:15:24.352Z,47.97
2023-01-10T07:17:52.344Z,225.40
2023-01-10T07:20:21.732Z,74.40
2023-01-10T07:22:54.932Z,75.90
2023-01-10T07:25:23.094Z,31.07
2023-01-10T07:27:51.167Z,31.63
2023-01-10T07:30:19.432Z,81.50
2023-01-10T07:32:47.407Z,43.20
2023-01-10T07:35:15.525Z,56.80
2023-01-10T07:37:44.955Z,32.20
2023-01-10T07:40:13.757Z,31.07
2023-01-10T07:42:41.734Z,105.17
2023-01-10T07:45:10.572Z,77.43
2023-01-10T07:47:38.659Z,59.43
2023-01-10T07:50:07.747Z,102.27
2023-01-10T07:52:35.729Z,176.53
2023-01-10T07:55:05.757Z,519.57
2023-01-10T07:57:33.746Z,501.03
2023-01-10T08:00:01.761Z,90.00
2023-01-10T08:02:29.841Z,918.63
2023-01-10T08:04:57.882Z,169.40
2023-01-10T08:07:25.872Z,446.53
2023-01-10T08:09:53.892Z,215.07
2023-01-10T08:12:24.632Z,222.87
2023-01-10T08:14:52.932Z,213.60
2023-01-10T08:17:21.476Z,77.63
2023-01-10T08:19:49.539Z,602.73
2023-01-10T08:22:17.600Z,380.30
2023-01-10T08:24:45.612Z,116.90
2023-01-10T08:27:13.663Z,324.20
2023-01-10T08:29:43.284Z,273.23
2023-01-10T08:32:11.752Z,218.47
2023-01-10T08:34:39.765Z,104.13
2023-01-10T08:37:07.772Z,198.40
2023-01-10T08:39:36.148Z,764.27
2023-01-10T08:42:04.149Z,68.50
2023-01-10T08:44:32.360Z,74.17
2023-01-10T08:47:01.723Z,126.07
2023-01-10T08:49:29.763Z,79.23
2023-01-10T08:51:57.930Z,81.20
2023-01-10T08:54:26.062Z,174.07
2023-01-10T08:56:54.061Z,86.93
2023-01-10T08:59:22.043Z,545.10
2023-01-10T09:01:50.084Z,481.57
2023-01-10T09:04:19.441Z,47.83
2023-01-10T09:06:47.454Z,1990.63
2023-01-10T09:09:15.445Z,261.63
2023-01-10T09:11:43.465Z,837.40
2023-01-10T09:14:11.423Z,211.90
2023-01-10T09:16:39.457Z,249.60
2023-01-10T09:19:07.470Z,393.90
2023-01-10T09:21:36.804Z,273.83
2023-01-10T09:24:05.114Z,282.10
2023-01-10T09:26:33.089Z,818.33
2023-01-10T09:29:01.100Z,1223.43
2023-01-10T09:31:29.168Z,660.60
2023-01-10T09:33:57.189Z,568.63
2023-01-10T09:36:25.167Z,134.07
2023-01-10T09:38:54.538Z,1381.10
2023-01-10T09:41:50.499Z,822.80
2023-01-10T09:44:21.991Z,768.00
2023-01-10T09:46:56.861Z,139.13
2023-01-10T09:49:37.423Z,606.07
2023-01-10T09:52:11.292Z,1158.70
2023-01-10T09:54:43.299Z,1442.77
2023-01-10T09:57:17.119Z,249.83
2023-01-10T09:59:45.762Z,124.10
2023-01-10T10:02:24.971Z,1483.53
2023-01-10T10:05:05.617Z,1630.57
2023-01-10T10:07:33.717Z,1080.67
2023-01-10T10:10:03.466Z,287.30
2023-01-10T10:12:43.367Z,316.30
2023-01-10T10:15:21.309Z,221.10
2023-01-10T10:17:56.956Z,630.00
2023-01-10T10:20:32.537Z,471.47
2023-01-10T10:23:14.198Z,259.67
2023-01-10T10:25:55.533Z,254.53
2023-01-10T10:28:54.845Z,97.33
2023-01-10T10:31:32.556Z,647.83
2023-01-10T10:34:12.261Z,190.97
2023-01-10T10:36:47.000Z,200.47
2023-01-10T10:39:18.123Z,223.03
2023-01-10T10:41:50.564Z,553.70
2023-01-10T10:44:37.123Z,600.73
2023-01-10T10:47:15.309Z,1204.80
2023-01-10T10:49:47.825Z,194.70
2023-01-10T10:52:24.819Z,173.13
2023-01-10T10:54:53.912Z,152.70
2023-01-10T10:57:27.228Z,195.43
2023-01-10T10:59:56.832Z,522.27
2023-01-10T11:02:27.956Z,945.27
2023-01-10T11:04:59.610Z,582.27
2023-01-10T11:07:32.909Z,1280.47
2023-01-10T11:10:11.800Z,473.97
2023-01-10T11:12:45.295Z,410.13
2023-01-10T11:15:13.297Z,1064.17
2023-01-10T11:17:42.454Z,139.00
2023-01-10T11:20:17.251Z,308.87
2023-01-10T11:22:50.154Z,589.20
2023-01-10T11:25:20.349Z,351.40
2023-01-10T11:27:52.512Z,278.13
2023-01-10T11:30:23.948Z,1950.27
2023-01-10T11:32:55.475Z,562.03
2023-01-10T11:35:27.856Z,1999.90
2023-01-10T11:38:04.276Z,227.53
2023-01-10T11:40:33.577Z,1517.73
2023-01-10T11:43:25.574Z,1999.90
2023-01-10T11:45:56.206Z,633.37
2023-01-10T11:48:50.325Z,369.30
2023-01-10T11:51:20.941Z,1462.70
2023-01-10T11:53:51.370Z,1577.20
2023-01-10T11:56:26.949Z,1916.67
2023-01-10T11:58:58.288Z,388.30
2023-01-10T12:01:35.879Z,1158.37
2023-01-10T12:04:04.179Z,462.73
2023-01-10T12:06:33.299Z,182.07
2023-01-10T12:09:01.354Z,1213.30
2023-01-10T12:11:32.350Z,280.77
2023-01-10T12:14:03.194Z,1620.07
2023-01-10T12:16:33.372Z,1127.67
2023-01-10T12:19:02.904Z,651.67
2023-01-10T12:21:40.254Z,163.73
2023-01-10T12:24:18.027Z,163.20
2023-01-10T12:26:47.391Z,766.60
2023-01-10T12:29:21.672Z,477.33
2023-01-10T12:31:51.968Z,1015.47
2023-01-10T12:34:23.414Z,964.70
2023-01-10T12:37:02.148Z,310.63
2023-01-10T12:39:34.964Z,1425.57
2023-01-10T12:42:30.318Z,1456.67
2023-01-10T12:45:04.927Z,434.13
2023-01-10T12:47:39.345Z,1169.37
2023-01-10T12:50:14.928Z,502.90
2023-01-10T12:52:47.450Z,820.53
2023-01-10T12:55:16.909Z,213.60
2023-01-10T12:57:51.725Z,635.50
2023-01-10T13:00:25.376Z,1238.83
2023-01-10T13:02:55.901Z,731.37
2023-01-10T13:05:25.931Z,326.93
2023-01-10T13:08:00.468Z,683.17
2023-01-10T13:10:29.994Z,181.40
2023-01-10T13:13:03.070Z,326.93
2023-01-10T13:15:36.162Z,666.17
2023-01-10T13:18:07.404Z,708.53
2023-01-10T13:20:45.843Z,238.93
2023-01-10T13:23:31.244Z,1401.47
2023-01-10T13:26:02.844Z,768.53
2023-01-10T13:28:33.391Z,1974.87
2023-01-10T13:31:06.189Z,866.80
2023-01-10T13:33:40.284Z,1382.73
2023-01-10T13:36:17.980Z,1334.90
2023-01-10T13:38:51.502Z,1689.83
2023-01-10T13:41:38.132Z,1999.90
2023-01-10T13:44:09.959Z,1823.13
2023-01-10T13:46:48.780Z,1619.77
2023-01-10T13:49:42.794Z,1634.47
2023-01-10T13:52:34.007Z,1989.83
2023-01-10T13:55:20.835Z,1435.00
2023-01-10T13:57:53.937Z,630.63
2023-01-10T14:00:43.250Z,1999.90
2023-01-10T14:03:52.794Z,1999.90
2023-01-10T14:06:40.889Z,527.37
2023-01-10T14:09:33.236Z,1085.77
2023-01-10T14:12:03.889Z,1999.90
2023-01-10T14:14:37.176Z,1999.90
2023-01-10T14:17:16.759Z,568.87
2023-01-10T14:19:46.746Z,1061.83
2023-01-10T14:22:31.019Z,468.73
2023-01-10T14:25:00.356Z,722.10
2023-01-10T14:27:37.410Z,1977.70
2023-01-10T14:30:08.313Z,651.50
2023-01-10T14:32:39.378Z,1745.63
2023-01-10T14:35:10.133Z,1385.63
2023-01-10T14:37:44.956Z,1071.33
2023-01-10T14:40:23.020Z,1999.90
2023-01-10T14:42:52.514Z,1990.77
2023-01-10T14:45:31.557Z,1946.53
2023-01-10T14:47:59.634Z,228.80
2023-01-10T14:50:32.429Z,1999.90
2023-01-10T14:53:01.854Z,1999.90
2023-01-10T14:55:29.860Z,1256.77
2023-01-10T14:57:59.050Z,925.23
2023-01-10T15:00:29.766Z,376.67
2023-01-10T15:03:01.726Z,1711.10
2023-01-10T15:05:31.969Z,1987.63
2023-01-10T15:08:18.274Z,156.47
2023-01-10T15:10:48.090Z,584.70
2023-01-10T15:13:19.773Z,593.10
2023-01-10T15:15:50.817Z,253.97
2023-01-10T15:18:34.056Z,898.93
2023-01-10T15:21:02.318Z,717.40
2023-01-10T15:23:37.085Z,305.67
2023-01-10T15:26:09.580Z,1473.57
2023-01-10T15:28:38.115Z,699.70
2023-01-10T15:31:07.467Z,646.33
2023-01-10T15:33:37.861Z,97.30
2023-01-10T15:36:08.345Z,1900.37
2023-01-10T15:38:42.534Z,1427.63
2023-01-10T15:41:11.112Z,1904.83
2023-01-10T15:43:40.240Z,1524.50
2023-01-10T15:46:20.236Z,451.80
2023-01-10T15:48:58.929Z,1995.50
2023-01-10T15:51:29.446Z,1011.07
2023-01-10T15:54:04.313Z,684.60
2023-01-10T15:56:38.064Z,175.10
2023-01-10T15:59:20.345Z,546.33
2023-01-10T16:01:55.586Z,1999.90
2023-01-10T16:04:24.217Z,190.93
2023-01-10T16:06:55.965Z,125.30
2023-01-10T16:09:25.455Z,703.30
2023-01-10T16:12:12.003Z,1584.07
2023-01-10T16:14:40.011Z,502.20
2023-01-10T16:17:08.053Z,633.23
2023-01-10T16:19:36.083Z,1914.50
2023-01-10T16:22:04.094Z,1999.90
2023-01-10T16:24:35.969Z,1999.90
2023-01-10T16:27:06.728Z,538.37
2023-01-10T16:29:35.015Z,1960.40
2023-01-10T16:32:03.002Z,1920.23
2023-01-10T16:34:33.977Z,1999.90
2023-01-10T16:37:01.964Z,1448.60
2023-01-10T16:39:29.981Z,1999.90
2023-01-10T16:42:16.706Z,390.07
2023-01-10T16:44:45.462Z,1098.10
2023-01-10T16:47:13.460Z,1999.90
2023-01-10T16:49:42.351Z,926.17
2023-01-10T16:52:14.082Z,1823.87
2023-01-10T16:54:42.056Z,1999.90
2023-01-10T16:57:12.504Z,1602.30
2023-01-10T16:59:40.570Z,1999.90
2023-01-10T17:02:18.899Z,1999.90
2023-01-10T17:04:46.993Z,1578.80
2023-01-10T17:07:14.981Z,1153.47
2023-01-10T17:09:42.977Z,1999.90
2023-01-10T17:12:19.410Z,1803.60
2023-01-10T17:14:48.622Z,1999.90
2023-01-10T17:17:16.644Z,1999.90
2023-01-10T17:19:44.695Z,863.23
2023-01-10T17:22:12.717Z,1999.90
2023-01-10T17:24:40.688Z,1999.90
2023-01-10T17:27:08.742Z,1860.97
2023-01-10T17:29:38.225Z,1497.40
2023-01-10T17:32:06.597Z,1999.90
2023-01-10T17:34:37.304Z,1096.50
2023-01-10T17:37:05.364Z,1281.13
2023-01-10T17:39:33.547Z,1999.90
2023-01-10T17:42:01.649Z,1999.90
2023-01-10T17:44:29.649Z,932.57
2023-01-10T17:46:59.027Z,1999.90
2023-01-10T17:49:27.128Z,1999.90
2023-01-10T17:51:55.249Z,825.17
2023-01-10T17:54:23.280Z,1999.90
2023-01-10T17:56:51.269Z,995.77
2023-01-10T17:59:19.324Z,1999.90
2023-01-10T18:01:47.415Z,1999.90
2023-01-10T18:04:16.842Z,1999.90
2023-01-10T18:06:45.037Z,1999.90
2023-01-10T18:09:13.036Z,1915.00
2023-01-10T18:11:41.561Z,1956.30
2023-01-10T18:14:23.428Z,1999.90
2023-01-10T18:16:51.572Z,1951.07
2023-01-10T18:19:20.933Z,1808.30
2023-01-10T18:21:49.351Z,601.27
2023-01-10T18:24:17.341Z,502.87
2023-01-10T18:26:45.338Z,1999.90
2023-01-10T18:29:13.336Z,889.13
2023-01-10T18:31:42.083Z,1999.90
2023-01-10T18:34:10.435Z,1999.90
2023-01-10T18:36:40.104Z,1999.90
2023-01-10T18:39:08.119Z,1999.90
2023-01-10T18:41:36.100Z,1999.90
2023-01-10T18:44:04.178Z,1999.90
2023-01-10T18:46:32.413Z,1999.90
2023-01-10T18:49:00.545Z,1999.90
2023-01-10T18:51:28.529Z,1999.90
2023-01-10T18:53:57.892Z,1999.90
2023-01-10T18:56:25.852Z,1999.90
2023-01-10T18:58:53.846Z,1999.90
2023-01-10T19:01:22.871Z,1999.90
2023-01-10T19:03:51.214Z,1999.90
2023-01-10T19:06:22.602Z,1999.90
2023-01-10T19:08:51.683Z,1999.90
2023-01-10T19:11:21.127Z,1999.90
2023-01-10T19:13:51.950Z,1999.90
2023-01-10T19:16:21.904Z,1999.90
2023-01-10T19:18:52.017Z,1999.90
2023-01-10T19:21:20.296Z,1999.90
2023-01-10T19:23:49.792Z,1999.90
2023-01-10T19:26:18.242Z,1999.90
2023-01-10T19:28:48.152Z,1999.90
2023-01-10T19:31:17.173Z,1999.90
2023-01-10T19:33:47.644Z,1999.90
2023-01-10T19:36:16.461Z,1999.90
2023-01-10T19:38:44.522Z,1999.90
2023-01-10T19:41:14.124Z,1999.90
2023-01-10T19:43:42.256Z,1999.90
2023-01-10T19:46:13.385Z,1999.90
2023-01-10T19:48:42.371Z,1999.90
2023-01-10T19:51:12.532Z,1999.90
2023-01-10T19:53:45.458Z,1999.90
2023-01-10T19:56:18.383Z,1999.90
2023-01-10T19:58:47.730Z,1597.20
2023-01-10T20:01:19.624Z,1999.90
2023-01-10T20:03:48.048Z,1999.90
2023-01-10T20:06:19.852Z,1999.90
2023-01-10T20:08:48.090Z,1999.90
2023-01-10T20:11:17.695Z,1578.37
2023-01-10T20:13:48.179Z,1999.90
2023-01-10T20:16:19.907Z,1999.90
2023-01-10T20:18:48.929Z,1999.90
2023-01-10T20:21:18.628Z,1999.90
2023-01-10T20:23:47.662Z,1999.90
2023-01-10T20:26:17.574Z,1979.07
2023-01-10T20:28:47.912Z,1999.90
2023-01-10T20:31:19.258Z,1973.50
2023-01-10T20:33:47.346Z,992.50
2023-01-10T20:36:17.410Z,1999.90
2023-01-10T20:38:45.809Z,1999.90
2023-01-10T20:41:15.874Z,1967.87
2023-01-10T20:43:44.372Z,1999.90
2023-01-10T20:46:14.167Z,1999.90
2023-01-10T20:48:44.128Z,1999.90
2023-01-10T20:51:14.496Z,1999.90
2023-01-10T20:53:42.626Z,1999.90
2023-01-10T20:56:13.822Z,1999.90
2023-01-10T20:58:42.265Z,1999.90
2023-01-10T21:01:12.453Z,1999.90
2023-01-10T21:03:45.820Z,1999.90
2023-01-10T21:06:14.830Z,806.27
2023-01-10T21:08:43.055Z,1999.90
2023-01-10T21:11:13.956Z,1999.90
2023-01-10T21:13:42.198Z,1999.90
2023-01-10T21:16:13.031Z,494.47
2023-01-10T21:18:44.417Z,1821.83
2023-01-10T21:21:15.892Z,1999.90
2023-01-10T21:23:44.028Z,1962.30
2023-01-10T21:26:14.304Z,1999.90
2023-01-10T21:28:46.411Z,1999.90
2023-01-10T21:31:16.743Z,1870.93
2023-01-10T21:33:44.973Z,1465.10
2023-01-10T21:36:14.594Z,1999.90
2023-01-10T21:38:43.721Z,1999.90
2023-01-10T21:41:14.385Z,1999.90
2023-01-10T21:43:44.479Z,1999.90
2023-01-10T21:46:13.102Z,1191.17
2023-01-10T21:48:41.155Z,1999.90
2023-01-10T21:51:09.150Z,1999.90
2023-01-10T21:53:41.312Z,1999.90
2023-01-10T21:56:09.771Z,1999.90
2023-01-10T21:58:37.749Z,1999.90
2023-01-10T22:01:06.092Z,1999.90
2023-01-10T22:03:34.967Z,1914.07
2023-01-10T22:06:03.472Z,1999.90
2023-01-10T22:08:31.456Z,1999.90
2023-01-10T22:11:00.806Z,1999.90
2023-01-10T22:13:28.791Z,1999.90
2023-01-10T22:15:59.596Z,1999.90
2023-01-10T22:18:28.194Z,1999.90
2023-01-10T22:20:56.709Z,1409.77
2023-01-10T22:23:25.743Z,1999.90
2023-01-10T22:26:02.731Z,1999.90
2023-01-10T22:28:31.130Z,657.60
2023-01-10T22:30:59.444Z,560.63
2023-01-10T22:33:29.757Z,1999.90
2023-01-10T22:35:58.316Z,1999.90
2023-01-10T22:38:26.329Z,1457.60
2023-01-10T22:40:54.324Z,1999.90
2023-01-10T22:43:23.658Z,1191.10
2023-01-10T22:45:51.672Z,1999.90
2023-01-10T22:48:20.207Z,785.13
2023-01-10T22:50:49.847Z,1529.63
2023-01-10T22:53:17.959Z,1999.90
2023-01-10T22:55:45.990Z,1815.37
2023-01-10T22:58:14.001Z,1591.13
2023-01-10T23:00:43.357Z,1999.90
2023-01-10T23:03:11.320Z,1999.90
2023-01-10T23:05:39.351Z,1999.90
2023-01-10T23:08:07.413Z,1999.90
2023-01-10T23:10:35.451Z,1999.90
2023-01-10T23:13:05.065Z,1664.13
2023-01-10T23:15:33.127Z,1999.90
2023-01-10T23:18:02.490Z,1738.03
2023-01-10T23:20:30.589Z,1778.57
2023-01-10T23:22:58.558Z,1999.90
2023-01-10T23:25:26.652Z,1999.90
2023-01-10T23:27:55.026Z,1999.90
2023-01-10T23:30:26.704Z,1999.90
2023-01-10T23:32:55.829Z,1999.90
2023-01-10T23:35:25.244Z,1999.90
2023-01-10T23:37:54.192Z,1999.90
2023-01-10T23:40:22.216Z,1892.50
2023-01-10T23:42:50.188Z,1999.90
2023-01-10T23:45:18.380Z,1818.13
2023-01-10T23:47:46.378Z,1999.90
2023-01-10T23:50:14.376Z,1999.90
2023-01-10T23:52:43.893Z,1996.20
2023-01-10T23:55:11.898Z,1999.90
2023-01-10T23:57:39.923Z,900.80
